Time;durP1;ratioP1;P1;durP2;ratioP2;P2;SDS_P1;SDS_P2;PMS_P1;PMS_P2;Temp;Humidity;BMP_temperature;BMP_pressure;BME280_temperature;BME280_humidity;BME280_pressure;Samples;Min_cycle;Max_cycle;Signal;HPM_P1;HPM_P2
2024/02/20 00:01:40;;;;;;;297.43;73.77;;;;;6.20;97516.00;;;;5024476;28;20433;-81
2024/02/20 00:04:29;;;;;;;332.97;80.70;;;;;6.40;97512.00;;;;5019875;28;20469;-81
2024/02/20 00:07:19;;;;;;;326.77;79.23;;;;;5.70;97509.00;;;;5025125;28;20937;-82
2024/02/20 00:10:10;;;;;;;329.77;76.47;;;;;6.00;97498.00;;;;5022222;28;20464;-81
2024/02/20 00:12:59;;;;;;;320.43;74.93;;;;;6.10;97518.00;;;;5018905;28;20523;-83
2024/02/20 00:15:48;;;;;;;328.07;77.47;;;;;6.10;97491.00;;;;5013802;28;20519;-82
2024/02/20 00:18:39;;;;;;;332.20;78.80;;;;;6.10;97498.00;;;;5015115;28;20462;-84
2024/02/20 00:21:28;;;;;;;339.93;83.90;;;;;6.00;97503.00;;;;5020949;28;20424;-82
2024/02/20 00:24:17;;;;;;;332.80;84.70;;;;;5.40;97485.00;;;;5025954;28;20455;-82
2024/02/20 00:27:07;;;;;;;332.27;80.40;;;;;5.80;97487.00;;;;5025181;28;20437;-82
2024/02/20 00:29:56;;;;;;;329.87;77.43;;;;;6.10;97497.00;;;;5020466;28;20476;-83
2024/02/20 00:32:45;;;;;;;351.50;90.20;;;;;5.40;97491.00;;;;5024905;28;20526;-83
2024/02/20 00:35:36;;;;;;;341.50;87.60;;;;;5.70;97501.00;;;;5025741;28;20456;-84
2024/02/20 00:38:25;;;;;;;340.77;83.87;;;;;5.70;97499.00;;;;5043915;28;20447;-82
2024/02/20 00:41:14;;;;;;;329.23;77.80;;;;;5.80;97495.00;;;;5038361;28;20801;-86
2024/02/20 00:44:03;;;;;;;337.20;84.27;;;;;5.70;97496.00;;;;5030839;28;20822;-85
2024/02/20 00:46:53;;;;;;;325.30;79.33;;;;;5.40;97493.00;;;;5027746;28;20448;-84
2024/02/20 00:49:42;;;;;;;323.70;78.67;;;;;5.90;97495.00;;;;5030692;28;20464;-83
2024/02/20 00:52:32;;;;;;;324.27;77.50;;;;;5.80;97493.00;;;;5028974;28;20523;-82
2024/02/20 00:55:22;;;;;;;318.60;78.47;;;;;5.10;97492.00;;;;5027448;28;20647;-82
2024/02/20 00:58:11;;;;;;;322.37;75.57;;;;;5.00;97483.00;;;;5012765;28;20433;-82
2024/02/20 01:01:00;;;;;;;320.63;77.07;;;;;5.10;97491.00;;;;5025173;28;20424;-83
2024/02/20 01:03:49;;;;;;;328.63;80.80;;;;;4.90;97484.00;;;;5020002;28;20472;-83
2024/02/20 01:06:39;;;;;;;318.87;74.47;;;;;4.40;97478.00;;;;5028954;28;20575;-84
2024/02/20 01:09:29;;;;;;;332.10;84.07;;;;;4.90;97486.00;;;;5019893;28;20615;-83
2024/02/20 01:12:18;;;;;;;322.97;76.10;;;;;4.90;97491.00;;;;5028305;28;20437;-86
2024/02/20 01:15:09;;;;;;;323.40;76.40;;;;;5.30;97483.00;;;;5025242;28;20443;-82
2024/02/20 01:17:58;;;;;;;318.70;75.00;;;;;5.40;97479.00;;;;5027257;28;20417;-82
2024/02/20 01:20:47;;;;;;;322.87;75.93;;;;;5.50;97481.00;;;;5029552;28;20442;-82
2024/02/20 01:23:37;;;;;;;337.43;84.70;;;;;5.40;97478.00;;;;5025944;28;20451;-82
2024/02/20 01:26:27;;;;;;;332.77;84.07;;;;;5.40;97489.00;;;;5033558;28;20432;-81
2024/02/20 01:29:21;;;;;;;328.23;79.40;;;;;5.50;97492.00;;;;5024637;28;20440;-85
2024/02/20 01:32:10;;;;;;;322.63;75.63;;;;;5.50;97493.00;;;;5019435;28;20440;-83
2024/02/20 01:34:59;;;;;;;327.57;81.37;;;;;5.50;97485.00;;;;5026153;28;20464;-82
2024/02/20 01:37:48;;;;;;;320.47;78.17;;;;;5.30;97484.00;;;;5021034;28;21088;-81
2024/02/20 01:40:38;;;;;;;328.43;86.43;;;;;5.30;97478.00;;;;5026678;28;20953;-83
2024/02/20 01:43:29;;;;;;;331.23;84.87;;;;;5.60;97482.00;;;;5028167;28;20444;-82
2024/02/20 01:46:21;;;;;;;319.50;80.87;;;;;5.50;97473.00;;;;5021354;28;20430;-82
2024/02/20 01:49:10;;;;;;;324.03;75.83;;;;;5.90;97495.00;;;;5026243;28;20456;-83
2024/02/20 01:52:00;;;;;;;327.67;79.20;;;;;5.80;97485.00;;;;5026180;28;20490;-83
2024/02/20 01:54:49;;;;;;;325.33;77.07;;;;;5.50;97475.00;;;;5020058;28;20456;-84
2024/02/20 01:57:38;;;;;;;339.83;83.83;;;;;5.30;97463.00;;;;5023784;28;20531;-83
2024/02/20 02:00:29;;;;;;;335.90;83.37;;;;;5.30;97461.00;;;;5020653;28;20436;-84
2024/02/20 02:03:18;;;;;;;316.27;78.97;;;;;5.60;97468.00;;;;5025747;28;20447;-85
2024/02/20 02:06:07;;;;;;;317.03;76.03;;;;;4.90;97454.00;;;;5025788;28;20834;-83
2024/02/20 02:08:56;;;;;;;298.60;74.40;;;;;4.60;97454.00;;;;5025928;28;20451;-84
2024/02/20 02:11:45;;;;;;;293.83;75.00;;;;;4.70;97442.00;;;;5028177;28;20469;-86
2024/02/20 02:14:34;;;;;;;318.33;80.13;;;;;4.90;97449.00;;;;5020285;28;20454;-81
2024/02/20 02:17:25;;;;;;;329.73;78.27;;;;;5.30;97437.00;;;;5026663;28;20433;-84
2024/02/20 02:20:14;;;;;;;318.63;77.50;;;;;5.60;97444.00;;;;5024414;28;20421;-84
2024/02/20 02:23:03;;;;;;;316.20;74.07;;;;;5.50;97450.00;;;;5029837;28;20445;-83
2024/02/20 02:25:52;;;;;;;333.17;82.83;;;;;5.20;97451.00;;;;5027265;28;20504;-84
2024/02/20 02:28:47;;;;;;;326.63;84.00;;;;;5.30;97449.00;;;;5022198;28;20451;-83
2024/02/20 02:31:36;;;;;;;327.93;84.27;;;;;5.30;97454.00;;;;5020001;28;20471;-83
2024/02/20 02:34:27;;;;;;;330.67;80.33;;;;;5.30;97454.00;;;;5016379;28;20509;-83
2024/02/20 02:37:17;;;;;;;301.63;77.07;;;;;4.70;97444.00;;;;5024169;28;20931;-82
2024/02/20 02:40:08;;;;;;;306.63;73.37;;;;;4.80;97438.00;;;;5027227;28;20428;-84
2024/02/20 02:42:57;;;;;;;326.90;79.87;;;;;4.90;97452.00;;;;5024239;28;20440;-81
2024/02/20 02:45:48;;;;;;;312.93;72.77;;;;;4.60;97442.00;;;;5019484;28;20428;-81
2024/02/20 02:48:37;;;;;;;333.90;84.93;;;;;4.70;97459.00;;;;5026610;28;20436;-82
2024/02/20 02:51:26;;;;;;;321.57;80.80;;;;;4.40;97457.00;;;;5027140;28;20468;-84
2024/02/20 02:54:15;;;;;;;317.17;75.00;;;;;4.10;97453.00;;;;5027232;28;20460;-81
2024/02/20 02:57:06;;;;;;;320.33;79.77;;;;;4.10;97443.00;;;;5028615;28;20444;-84
2024/02/20 02:59:55;;;;;;;311.07;74.87;;;;;4.00;97459.00;;;;5016763;28;20456;-83
2024/02/20 03:02:46;;;;;;;327.23;78.30;;;;;4.40;97460.00;;;;5027869;22;20498;-69
2024/02/20 03:05:37;;;;;;;332.77;82.67;;;;;4.30;97466.00;;;;5036315;28;20799;-69
2024/02/20 03:08:26;;;;;;;340.30;86.87;;;;;3.80;97468.00;;;;5040091;28;20801;-69
2024/02/20 03:11:17;;;;;;;308.90;77.23;;;;;4.00;97463.00;;;;5062434;22;20821;-70
2024/02/20 03:14:06;;;;;;;304.83;79.17;;;;;4.40;97470.00;;;;5019439;28;20447;-65
2024/02/20 03:16:55;;;;;;;322.97;78.20;;;;;4.40;97476.00;;;;5017429;28;20822;-67
2024/02/20 03:19:47;;;;;;;319.63;75.07;;;;;4.10;97464.00;;;;5022787;28;20436;-67
2024/02/20 03:22:36;;;;;;;332.53;86.23;;;;;3.80;97473.00;;;;5017710;28;20453;-65
2024/02/20 03:25:27;;;;;;;334.13;82.37;;;;;4.10;97474.00;;;;5018495;28;20964;-66
2024/02/20 03:28:16;;;;;;;315.17;74.00;;;;;3.90;97473.00;;;;5024158;28;20489;-66
2024/02/20 03:31:07;;;;;;;223.37;66.87;;;;;3.70;97472.00;;;;5023605;28;20471;-67
2024/02/20 03:33:56;;;;;;;311.03;71.93;;;;;4.00;97475.00;;;;5020345;28;20975;-67
2024/02/20 03:36:47;;;;;;;266.73;75.07;;;;;4.30;97482.00;;;;5026479;28;20439;-67
2024/02/20 03:39:36;;;;;;;309.43;82.53;;;;;4.40;97481.00;;;;5021021;28;20468;-67
2024/02/20 03:42:25;;;;;;;321.03;80.07;;;;;4.50;97479.00;;;;5023640;28;20996;-67
2024/02/20 03:45:15;;;;;;;315.63;73.93;;;;;4.20;97475.00;;;;5019925;28;20455;-67
2024/02/20 03:48:04;;;;;;;307.50;72.03;;;;;4.30;97474.00;;;;5025394;28;20455;-67
2024/02/20 03:50:53;;;;;;;319.80;74.97;;;;;4.50;97489.00;;;;5018399;28;20461;-67
2024/02/20 03:53:44;;;;;;;312.80;75.27;;;;;4.10;97481.00;;;;5024897;28;20448;-67
2024/02/20 03:56:33;;;;;;;310.33;79.53;;;;;4.70;97493.00;;;;5018015;28;20436;-66
2024/02/20 03:59:22;;;;;;;329.57;79.57;;;;;4.80;97487.00;;;;5018632;28;20808;-66
2024/02/20 04:02:11;;;;;;;319.57;76.43;;;;;4.40;97490.00;;;;5024897;28;20449;-67
2024/02/20 04:05:00;;;;;;;313.57;74.33;;;;;3.90;97493.00;;;;5019257;28;20452;-67
2024/02/20 04:07:49;;;;;;;316.90;75.80;;;;;3.70;97485.00;;;;5020074;28;20966;-67
2024/02/20 04:10:40;;;;;;;295.27;73.90;;;;;4.10;97502.00;;;;5021602;28;20443;-67
2024/02/20 04:13:29;;;;;;;284.87;92.57;;;;;4.30;97497.00;;;;5012978;28;20522;-67
2024/02/20 04:16:18;;;;;;;212.67;69.73;;;;;4.10;97488.00;;;;5020211;28;20809;-67
2024/02/20 04:19:07;;;;;;;253.13;74.17;;;;;3.80;97495.00;;;;5019754;28;20439;-67
2024/02/20 04:21:56;;;;;;;258.77;77.77;;;;;4.30;97486.00;;;;5019531;28;20446;-67
2024/02/20 04:24:45;;;;;;;281.93;73.33;;;;;4.50;97489.00;;;;5025027;28;20440;-67
2024/02/20 04:27:37;;;;;;;300.20;75.87;;;;;4.50;97483.00;;;;5014691;28;20432;-67
2024/02/20 04:30:26;;;;;;;320.70;75.20;;;;;4.50;97479.00;;;;5017574;28;20428;-67
2024/02/20 04:33:16;;;;;;;303.60;73.83;;;;;4.10;97483.00;;;;5017869;28;20455;-67
2024/02/20 04:36:05;;;;;;;312.73;73.80;;;;;4.30;97483.00;;;;5022059;28;20506;-67
2024/02/20 04:38:57;;;;;;;326.77;78.37;;;;;4.50;97476.00;;;;5022272;28;20437;-66
2024/02/20 04:41:46;;;;;;;316.50;74.30;;;;;4.60;97486.00;;;;5025238;28;20448;-66
2024/02/20 04:44:37;;;;;;;333.57;86.83;;;;;4.50;97485.00;;;;5020796;28;20440;-67
2024/02/20 04:47:27;;;;;;;319.83;72.60;;;;;4.60;97468.00;;;;5026201;28;20822;-67
2024/02/20 04:50:18;;;;;;;319.77;75.80;;;;;4.40;97489.00;;;;5021422;28;20444;-66
2024/02/20 04:53:08;;;;;;;303.43;76.27;;;;;3.80;97472.00;;;;5022956;28;20475;-67
2024/02/20 04:55:57;;;;;;;318.90;74.53;;;;;3.80;97480.00;;;;5024837;28;20809;-66
2024/02/20 04:58:46;;;;;;;326.10;77.90;;;;;4.10;97481.00;;;;5020697;28;20949;-67
2024/02/20 05:01:37;;;;;;;332.43;85.77;;;;;4.20;97485.00;;;;5018050;28;20562;-67
2024/02/20 05:04:26;;;;;;;322.13;78.50;;;;;4.30;97490.00;;;;5019832;28;20439;-66
2024/02/20 05:07:15;;;;;;;306.90;74.27;;;;;4.40;97494.00;;;;5025223;28;20448;-67
2024/02/20 05:10:07;;;;;;;286.23;72.03;;;;;4.50;97491.00;;;;5025291;28;20854;-67
2024/02/20 05:12:56;;;;;;;319.07;75.47;;;;;4.30;97490.00;;;;5022924;28;21021;-67
2024/02/20 05:15:45;;;;;;;299.37;73.90;;;;;3.80;97493.00;;;;5025694;28;20974;-67
2024/02/20 05:18:35;;;;;;;322.47;82.97;;;;;3.50;97484.00;;;;5023303;28;20952;-68
2024/02/20 05:21:24;;;;;;;309.63;73.73;;;;;3.40;97489.00;;;;5022072;28;20435;-67
2024/02/20 05:24:13;;;;;;;323.70;75.33;;;;;3.70;97495.00;;;;5019974;28;20436;-67
2024/02/20 05:27:03;;;;;;;313.50;71.63;;;;;3.70;97487.00;;;;5027712;28;20430;-67
2024/02/20 05:29:52;;;;;;;283.43;70.93;;;;;3.90;97483.00;;;;5024623;28;20443;-65
2024/02/20 05:32:41;;;;;;;243.10;74.43;;;;;3.80;97482.00;;;;5024305;28;20859;-66
2024/02/20 05:35:32;;;;;;;301.70;75.00;;;;;3.00;97473.00;;;;5022578;28;20444;-66
2024/02/20 05:38:23;;;;;;;291.97;72.23;;;;;3.20;97472.00;;;;5026659;28;20429;-66
2024/02/20 05:41:12;;;;;;;301.10;69.73;;;;;3.40;97468.00;;;;5018163;28;20961;-65
2024/02/20 05:44:01;;;;;;;320.67;79.63;;;;;3.10;97466.00;;;;5020079;28;20816;-65
2024/02/20 05:46:50;;;;;;;325.23;75.37;;;;;3.00;97475.00;;;;5023440;28;20455;-66
2024/02/20 05:49:40;;;;;;;324.70;81.47;;;;;3.70;97478.00;;;;5023663;28;20460;-65
2024/02/20 05:52:31;;;;;;;160.30;73.70;;;;;3.90;97486.00;;;;5017188;28;20465;-65
2024/02/20 05:55:20;;;;;;;304.97;71.83;;;;;4.10;97485.00;;;;5020419;28;20961;-66
2024/02/20 05:58:09;;;;;;;270.57;72.60;;;;;4.00;97489.00;;;;5020592;28;21018;-65
2024/02/20 06:00:58;;;;;;;289.27;77.23;;;;;3.50;97489.00;;;;5021420;28;20435;-66
2024/02/20 06:03:47;;;;;;;317.67;78.13;;;;;3.10;97486.00;;;;5025801;28;20490;-66
2024/02/20 06:06:37;;;;;;;290.33;83.50;;;;;3.60;97504.00;;;;5025759;28;20451;-66
2024/02/20 06:09:28;;;;;;;332.80;82.30;;;;;3.90;97498.00;;;;5025026;28;20440;-65
2024/02/20 06:12:17;;;;;;;305.73;74.93;;;;;4.00;97500.00;;;;5015472;28;21039;-65
2024/02/20 06:15:07;;;;;;;321.17;72.37;;;;;4.10;97501.00;;;;5018138;28;20452;-65
2024/02/20 06:17:56;;;;;;;307.20;74.17;;;;;3.80;97500.00;;;;5013961;28;20432;-65
2024/02/20 06:20:46;;;;;;;292.70;74.80;;;;;3.80;97505.00;;;;5018980;28;20936;-66
2024/02/20 06:23:38;;;;;;;305.90;80.23;;;;;3.80;97503.00;;;;5020257;28;20868;-65
2024/02/20 06:26:30;;;;;;;320.87;80.30;;;;;3.50;97504.00;;;;5018059;28;20460;-66
2024/02/20 06:29:19;;;;;;;323.73;79.70;;;;;3.60;97499.00;;;;5024904;28;20453;-65
2024/02/20 06:32:08;;;;;;;372.87;122.93;;;;;3.20;97500.00;;;;4999340;28;20478;-65
2024/02/20 06:34:57;;;;;;;317.43;73.13;;;;;3.20;97502.00;;;;5022772;28;20448;-65
2024/02/20 06:37:46;;;;;;;315.90;73.97;;;;;3.40;97516.00;;;;5022217;28;20452;-65
2024/02/20 06:40:35;;;;;;;323.97;78.87;;;;;3.40;97516.00;;;;5020697;28;20447;-65
2024/02/20 06:43:26;;;;;;;305.93;72.03;;;;;3.50;97515.00;;;;5014572;28;20856;-65
2024/02/20 06:46:15;;;;;;;314.27;72.23;;;;;3.20;97525.00;;;;5019553;28;20440;-65
2024/02/20 06:49:04;;;;;;;307.37;76.03;;;;;3.50;97533.00;;;;5022204;28;20455;-64
2024/02/20 06:51:53;;;;;;;125.67;62.60;;;;;3.60;97522.00;;;;4987953;28;20472;-65
2024/02/20 06:54:42;;;;;;;243.20;146.27;;;;;3.70;97540.00;;;;4969389;28;21036;-65
2024/02/20 06:57:32;;;;;;;194.07;121.40;;;;;4.20;97547.00;;;;4959190;28;20526;-65
2024/02/20 07:00:24;;;;;;;225.87;140.43;;;;;4.30;97538.00;;;;4965064;28;20471;-65
2024/02/20 07:03:13;;;;;;;188.37;123.53;;;;;4.20;97533.00;;;;4957886;28;20467;-65
2024/02/20 07:06:02;;;;;;;182.07;112.87;;;;;4.50;97530.00;;;;4963047;28;20493;-65
2024/02/20 07:08:51;;;;;;;126.87;83.67;;;;;4.90;97534.00;;;;4964196;28;20563;-65
2024/02/20 07:11:45;;;;;;;184.10;113.43;;;;;4.50;97534.00;;;;4966843;28;20472;-65
2024/02/20 07:14:35;;;;;;;148.70;97.00;;;;;3.90;97533.00;;;;4975001;28;20436;-66
2024/02/20 07:17:26;;;;;;;164.90;106.50;;;;;3.50;97536.00;;;;4976482;28;20444;-65
2024/02/20 07:20:16;;;;;;;49.03;40.17;;;;;3.70;97527.00;;;;5018731;28;20438;-64
2024/02/20 07:23:05;;;;;;;157.17;104.97;;;;;3.30;97523.00;;;;5017398;28;20464;-66
2024/02/20 07:25:54;;;;;;;53.70;43.10;;;;;3.40;97520.00;;;;5014334;28;20440;-64
2024/02/20 07:28:44;;;;;;;63.77;45.93;;;;;3.60;97527.00;;;;5010329;28;20441;-66
2024/02/20 07:31:33;;;;;;;242.47;140.20;;;;;3.60;97526.00;;;;4994802;28;20534;-65
2024/02/20 07:34:25;;;;;;;52.23;41.10;;;;;3.50;97523.00;;;;5018537;28;20473;-65
2024/02/20 07:37:14;;;;;;;48.17;39.53;;;;;4.30;97529.00;;;;5016771;28;20440;-65
2024/02/20 07:40:03;;;;;;;55.33;43.67;;;;;4.70;97532.00;;;;5008898;28;20808;-65
2024/02/20 07:42:52;;;;;;;67.13;48.43;;;;;5.00;97529.00;;;;5017093;28;20464;-65
2024/02/20 07:45:41;;;;;;;81.07;53.13;;;;;5.10;97534.00;;;;5019518;28;20447;-65
2024/02/20 07:48:30;;;;;;;97.67;62.07;;;;;4.80;97548.00;;;;5021241;28;20452;-65
2024/02/20 07:51:23;;;;;;;73.17;49.53;;;;;5.10;97550.00;;;;5011466;28;20925;-65
2024/02/20 07:54:12;;;;;;;90.90;57.90;;;;;5.40;97545.00;;;;5008665;28;20567;-65
2024/02/20 07:57:02;;;;;;;102.43;63.70;;;;;5.50;97557.00;;;;5016764;28;20452;-65
2024/02/20 07:59:51;;;;;;;85.97;54.00;;;;;5.50;97555.00;;;;5018081;28;20428;-65
2024/02/20 08:02:40;;;;;;;105.90;66.53;;;;;5.60;97559.00;;;;5013727;28;20479;-65
2024/02/20 08:05:29;;;;;;;106.73;62.87;;;;;5.60;97549.00;;;;5014843;28;20718;-65
2024/02/20 08:08:20;;;;;;;106.40;62.10;;;;;6.00;97545.00;;;;5009206;28;20221;-65
2024/02/20 08:11:09;;;;;;;100.50;59.97;;;;;5.60;97547.00;;;;5016287;28;20213;-65
2024/02/20 08:13:59;;;;;;;102.63;60.23;;;;;5.90;97534.00;;;;5020946;28;20237;-65
2024/02/20 08:16:49;;;;;;;107.73;61.83;;;;;6.30;97539.00;;;;5018863;28;20593;-65
2024/02/20 08:19:39;;;;;;;133.93;75.63;;;;;6.20;97547.00;;;;5029160;28;20208;-66
2024/02/20 08:22:28;;;;;;;114.93;65.97;;;;;6.30;97553.00;;;;5023404;28;20236;-66
2024/02/20 08:25:18;;;;;;;116.57;65.63;;;;;5.90;97545.00;;;;5014166;28;20245;-66
2024/02/20 08:28:08;;;;;;;109.57;61.77;;;;;6.20;97544.00;;;;5021748;28;20205;-66
2024/02/20 08:30:57;;;;;;;121.53;65.87;;;;;6.40;97559.00;;;;5016246;28;20210;-66
2024/02/20 08:33:46;;;;;;;139.43;72.77;;;;;6.00;97538.00;;;;5015317;28;20236;-65
2024/02/20 08:36:37;;;;;;;149.50;80.97;;;;;5.90;97546.00;;;;5016439;28;20220;-65
2024/02/20 08:39:26;;;;;;;145.03;75.23;;;;;6.20;97544.00;;;;5013800;28;20209;-65
2024/02/20 08:42:17;;;;;;;144.23;72.20;;;;;6.30;97544.00;;;;5020425;28;20224;-65
2024/02/20 08:45:08;;;;;;;135.27;66.97;;;;;6.30;97537.00;;;;5022229;28;20666;-65
2024/02/20 08:47:58;;;;;;;147.53;72.67;;;;;6.30;97537.00;;;;5024624;28;20224;-65
2024/02/20 08:50:47;;;;;;;178.60;75.63;;;;;6.20;97542.00;;;;5022159;28;20274;-65
2024/02/20 08:53:36;;;;;;;228.60;92.00;;;;;6.40;97541.00;;;;5022967;28;20817;-66
2024/02/20 08:56:25;;;;;;;281.87;79.47;;;;;6.70;97539.00;;;;5027213;28;20956;-65
2024/02/20 08:59:16;;;;;;;341.63;86.10;;;;;7.00;97537.00;;;;5017409;28;20495;-65
2024/02/20 09:02:05;;;;;;;331.63;80.73;;;;;7.60;97541.00;;;;5025152;28;20547;-65
2024/02/20 09:04:55;;;;;;;333.37;80.73;;;;;7.60;97541.00;;;;5020284;28;20449;-65
2024/02/20 09:07:44;;;;;;;349.73;95.50;;;;;8.00;97543.00;;;;5018617;28;20435;-65
2024/02/20 09:10:33;;;;;;;343.13;90.80;;;;;8.30;97549.00;;;;5016029;28;20432;-66
2024/02/20 09:13:22;;;;;;;358.87;98.07;;;;;8.10;97555.00;;;;5053563;22;20506;-68
2024/02/20 09:16:14;;;;;;;339.10;86.57;;;;;8.60;97559.00;;;;5038071;28;20454;-69
2024/02/20 09:19:03;;;;;;;339.33;85.50;;;;;8.90;97543.00;;;;5046715;28;20450;-69
2024/02/20 09:21:52;;;;;;;346.77;100.07;;;;;9.70;97541.00;;;;5038420;28;20836;-69
2024/02/20 09:24:41;;;;;;;358.07;112.57;;;;;10.30;97548.00;;;;5030593;28;20424;-69
2024/02/20 09:27:31;;;;;;;353.47;98.40;;;;;10.90;97545.00;;;;5025747;28;20443;-70
2024/02/20 09:30:20;;;;;;;350.97;96.70;;;;;11.10;97539.00;;;;5026249;28;20598;-70
2024/02/20 09:33:12;;;;;;;346.77;94.87;;;;;11.30;97550.00;;;;5025940;28;20233;-69
2024/02/20 09:36:02;;;;;;;345.40;94.43;;;;;11.50;97563.00;;;;5027182;28;20730;-69
2024/02/20 09:38:51;;;;;;;355.43;101.83;;;;;11.80;97551.00;;;;5025903;28;20210;-69
2024/02/20 09:41:40;;;;;;;360.60;108.07;;;;;12.10;97551.00;;;;5027140;28;20570;-69
2024/02/20 09:44:30;;;;;;;353.27;102.53;;;;;12.30;97549.00;;;;5026499;28;20206;-69
2024/02/20 09:47:20;;;;;;;345.70;97.33;;;;;12.50;97547.00;;;;5025779;28;20215;-70
2024/02/20 09:50:12;;;;;;;349.40;100.37;;;;;12.80;97556.00;;;;5027096;28;20205;-69
2024/02/20 09:53:01;;;;;;;353.93;105.77;;;;;13.10;97543.00;;;;5024856;28;20213;-69
2024/02/20 09:55:52;;;;;;;356.80;109.87;;;;;13.40;97548.00;;;;5026771;28;20205;-69
2024/02/20 09:58:41;;;;;;;375.00;121.20;;;;;13.60;97538.00;;;;5026849;28;20209;-68
2024/02/20 10:01:31;;;;;;;355.47;106.30;;;;;13.80;97543.00;;;;5025007;28;20216;-69
2024/02/20 10:04:21;;;;;;;353.43;107.73;;;;;13.90;97529.00;;;;5023518;28;20202;-69
2024/02/20 10:07:13;;;;;;;361.03;114.57;;;;;14.10;97547.00;;;;5026420;28;20558;-69
2024/02/20 10:10:04;;;;;;;359.10;114.17;;;;;14.00;97539.00;;;;5028733;28;20212;-69
2024/02/20 10:12:58;;;;;;;356.93;111.73;;;;;14.50;97538.00;;;;5025164;28;20667;-69
2024/02/20 10:15:49;;;;;;;360.37;118.17;;;;;14.60;97527.00;;;;5027181;28;20225;-70
2024/02/20 10:18:38;;;;;;;380.77;133.90;;;;;14.90;97524.00;;;;5026032;28;20201;-69
2024/02/20 10:21:27;;;;;;;364.33;121.07;;;;;14.70;97520.00;;;;5026727;28;20208;-68
2024/02/20 10:24:17;;;;;;;377.70;131.53;;;;;15.20;97513.00;;;;5021241;28;20201;-69
2024/02/20 10:27:10;;;;;;;363.20;124.03;;;;;16.40;97514.00;;;;5028461;28;20585;-69
2024/02/20 10:30:00;;;;;;;367.87;132.07;;;;;16.60;97519.00;;;;5025669;28;20220;-69
2024/02/20 10:32:49;;;;;;;369.33;132.27;;;;;17.20;97517.00;;;;5025969;28;20233;-69
2024/02/20 10:35:40;;;;;;;382.67;146.10;;;;;17.20;97512.00;;;;5024245;28;20232;-68
2024/02/20 10:38:29;;;;;;;377.87;140.93;;;;;17.50;97495.00;;;;5025725;28;20213;-69
2024/02/20 10:41:22;;;;;;;372.63;147.13;;;;;18.30;97509.00;;;;5024549;28;20209;-68
2024/02/20 10:44:11;;;;;;;383.10;155.53;;;;;18.20;97525.00;;;;5025514;28;20201;-68
2024/02/20 10:47:02;;;;;;;378.87;162.13;;;;;17.50;97526.00;;;;5024500;28;20208;-68
2024/02/20 10:49:52;;;;;;;370.47;157.50;;;;;16.50;97498.00;;;;5024360;28;20205;-68
2024/02/20 10:52:41;;;;;;;390.87;174.70;;;;;16.80;97518.00;;;;5023861;28;20267;-68
2024/02/20 10:55:31;;;;;;;379.17;173.63;;;;;17.00;97493.00;;;;5024763;28;20244;-69
2024/02/20 10:58:23;;;;;;;392.17;184.00;;;;;17.20;97526.00;;;;5020703;28;20217;-69
2024/02/20 11:01:13;;;;;;;375.83;164.43;;;;;16.60;97494.00;;;;5032069;28;20241;-69
2024/02/20 11:04:02;;;;;;;384.70;175.50;;;;;16.40;97500.00;;;;5023451;28;20233;-69
2024/02/20 11:06:52;;;;;;;377.33;165.77;;;;;16.80;97511.00;;;;5025993;28;20209;-69
2024/02/20 11:09:41;;;;;;;394.63;176.37;;;;;17.00;97496.00;;;;5027483;28;20209;-69
2024/02/20 11:12:31;;;;;;;378.50;168.07;;;;;17.30;97465.00;;;;5020577;28;20248;-68
2024/02/20 11:15:28;;;;;;;378.13;169.43;;;;;18.10;97473.00;;;;5029069;28;20217;-69
2024/02/20 11:18:18;;;;;;;378.20;177.53;;;;;18.70;97464.00;;;;5031665;28;20201;-69
2024/02/20 11:21:07;;;;;;;378.73;187.40;;;;;17.80;97453.00;;;;5025201;28;20282;-70
2024/02/20 11:23:57;;;;;;;377.77;191.93;;;;;19.30;97463.00;;;;5033074;28;20228;-68
2024/02/20 11:26:48;;;;;;;397.50;221.97;;;;;17.90;97489.00;;;;5035946;28;20203;-69
2024/02/20 11:29:37;;;;;;;393.37;219.13;;;;;19.40;97475.00;;;;5029618;28;20260;-68
2024/02/20 11:32:32;;;;;;;379.83;212.47;;;;;19.00;97434.00;;;;5031508;28;20771;-69
2024/02/20 11:35:24;;;;;;;384.30;229.60;;;;;18.80;97466.00;;;;5030525;28;20213;-69
2024/02/20 11:38:16;;;;;;;385.87;222.67;;;;;18.40;97457.00;;;;5032129;28;20204;-70
2024/02/20 11:41:07;;;;;;;386.00;224.50;;;;;19.70;97456.00;;;;5032479;28;20193;-68
2024/02/20 11:44:03;;;;;;;377.80;217.63;;;;;17.70;97467.00;;;;5027287;28;20578;-70
2024/02/20 11:46:57;;;;;;;385.80;227.85;;;;;18.40;97481.00;;;;5019619;28;20198;-68
2024/02/20 11:49:49;;;;;;;399.20;233.97;;;;;17.70;97464.00;;;;5020463;28;20586;-70
2024/02/20 11:52:41;;;;;;;395.40;220.60;;;;;17.70;97473.00;;;;5019134;28;20583;-70
2024/02/20 11:55:32;;;;;;;378.40;198.57;;;;;17.20;97468.00;;;;5023594;28;20347;-69
2024/02/20 11:58:22;;;;;;;389.40;204.53;;;;;18.00;97472.00;;;;5023578;28;20236;-69
2024/02/20 12:01:12;;;;;;;375.77;188.07;;;;;19.10;97473.00;;;;5027474;28;20206;-69
2024/02/20 12:04:05;;;;;;;385.13;201.90;;;;;19.00;97435.00;;;;5020800;28;20229;-69
2024/02/20 12:06:56;;;;;;;384.50;210.57;;;;;19.80;97425.00;;;;5018022;28;20220;-69
2024/02/20 12:09:54;;;;;;;391.53;224.03;;;;;20.30;97414.00;;;;5023114;28;20375;-68
2024/02/20 12:12:43;;;;;;;395.83;240.37;;;;;21.50;97467.00;;;;5023038;28;20239;-68
2024/02/20 12:15:38;;;;;;;387.67;245.43;;;;;19.80;97468.00;;;;5024300;28;20229;-69
2024/02/20 12:18:28;;;;;;;394.93;265.57;;;;;20.00;97483.00;;;;5024852;28;20247;-68
2024/02/20 12:21:18;;;;;;;389.23;257.83;;;;;17.90;97471.00;;;;5024455;28;20197;-69
2024/02/20 12:24:10;;;;;;;401.00;267.10;;;;;17.00;97459.00;;;;5020968;28;20208;-70
2024/02/20 12:26:59;;;;;;;387.97;235.93;;;;;17.40;97457.00;;;;5025711;28;20307;-68
2024/02/20 12:29:49;;;;;;;402.93;240.87;;;;;18.60;97475.00;;;;5023437;28;20717;-68
2024/02/20 12:32:39;;;;;;;394.07;226.93;;;;;17.50;97471.00;;;;5025139;28;20221;-69
2024/02/20 12:35:28;;;;;;;378.93;206.47;;;;;17.80;97429.00;;;;5021611;28;20229;-69
2024/02/20 12:38:18;;;;;;;388.00;217.27;;;;;18.80;97468.00;;;;5021626;28;20245;-69
2024/02/20 12:41:09;;;;;;;378.67;202.70;;;;;18.90;97418.00;;;;5020368;28;20220;-69
2024/02/20 12:43:59;;;;;;;383.20;207.13;;;;;18.00;97482.00;;;;5025155;28;20706;-69
2024/02/20 12:46:50;;;;;;;390.67;221.53;;;;;17.00;97493.00;;;;5025204;28;20201;-70
2024/02/20 12:49:40;;;;;;;396.13;218.00;;;;;17.00;97504.00;;;;5020615;28;20213;-69
2024/02/20 12:52:30;;;;;;;380.03;200.13;;;;;15.70;97492.00;;;;5022844;28;20221;-69
2024/02/20 12:55:19;;;;;;;381.17;192.23;;;;;15.70;97498.00;;;;5020805;28;20225;-68
2024/02/20 12:58:11;;;;;;;368.43;186.47;;;;;16.70;97454.00;;;;5025896;28;20296;-67
2024/02/20 13:01:00;;;;;;;380.00;173.20;;;;;15.90;97491.00;;;;5025485;28;20258;-68
2024/02/20 13:03:49;;;;;;;397.07;176.23;;;;;16.90;97419.00;;;;5023823;28;20229;-70
2024/02/20 13:06:38;;;;;;;383.37;177.47;;;;;18.70;97449.00;;;;5024393;28;20259;-69
2024/02/20 13:09:28;;;;;;;380.57;182.77;;;;;18.60;97480.00;;;;5020390;28;20225;-69
2024/02/20 13:12:17;;;;;;;377.50;189.20;;;;;17.20;97470.00;;;;5025805;28;20233;-69
2024/02/20 13:15:08;;;;;;;376.50;197.60;;;;;17.80;97417.00;;;;5023579;28;20269;-69
2024/02/20 13:17:57;;;;;;;385.43;213.50;;;;;19.30;97424.00;;;;5025029;28;20202;-68
2024/02/20 13:20:47;;;;;;;388.87;222.80;;;;;19.00;97427.00;;;;5022509;28;20752;-67
2024/02/20 13:23:37;;;;;;;397.10;242.60;;;;;18.20;97414.00;;;;5023236;28;20233;-69
2024/02/20 13:26:26;;;;;;;383.33;237.27;;;;;18.20;97405.00;;;;5024676;28;20560;-67
2024/02/20 13:29:16;;;;;;;389.57;238.33;;;;;17.90;97407.00;;;;5020842;28;20271;-67
2024/02/20 13:32:06;;;;;;;380.40;238.87;;;;;19.40;97445.00;;;;5033376;28;20236;-69
2024/02/20 13:34:56;;;;;;;382.13;247.10;;;;;19.80;97441.00;;;;5026353;28;20671;-68
2024/02/20 13:37:47;;;;;;;394.00;260.70;;;;;19.40;97465.00;;;;5027837;28;20201;-68
2024/02/20 13:40:37;;;;;;;407.80;267.53;;;;;20.80;97391.00;;;;5025405;28;20208;-67
2024/02/20 13:43:27;;;;;;;391.97;277.80;;;;;19.70;97442.00;;;;5027684;28;20783;-68